Time;durP1;ratioP1;P1;durP2;ratioP2;P2;SDS_P1;SDS_P2;PMS_P1;PMS_P2;Temp;Humidity;BMP_temperature;BMP_pressure;BME280_temperature;BME280_humidity;BME280_pressure;Samples;Min_cycle;Max_cycle;Signal;HPM_P1;HPM_P2
2023/02/16 00:01:07;;;;;;;63.78;34.20;;;;;;;2.38;64.41;95860.66;4217414;28;20056;-60
2023/02/16 00:03:18;;;;;;;54.35;33.47;;;;;;;2.39;64.92;95854.56;4192509;28;20118;-58
2023/02/16 00:05:31;;;;;;;61.13;34.67;;;;;;;2.45;64.88;95864.59;4191999;28;20049;-57
2023/02/16 00:07:33;;;;;;;59.13;34.10;;;;;;;2.56;64.28;95864.03;4210532;28;20054;-57
2023/02/16 00:09:35;;;;;;;58.88;35.83;;;;;;;2.58;64.12;95866.53;4198371;28;20308;-59
2023/02/16 00:13:57;;;;;;;63.03;35.25;;;;;;;2.51;64.00;95862.59;4194484;28;20052;-58
2023/02/16 00:16:01;;;;;;;56.03;34.67;;;;;;;2.53;64.44;95869.34;4173698;28;20143;-59
2023/02/16 00:18:13;;;;;;;61.28;36.15;;;;;;;2.53;64.26;95863.34;4216794;28;20589;-58
2023/02/16 00:20:16;;;;;;;59.95;32.80;;;;;;;2.51;63.98;95857.44;4207479;28;20048;-60
2023/02/16 00:22:30;;;;;;;59.20;34.88;;;;;;;2.53;64.16;95858.19;4194482;28;20088;-60
2023/02/16 00:24:40;;;;;;;63.28;34.80;;;;;;;2.46;64.34;95855.09;4214811;28;20096;-58
2023/02/16 00:26:43;;;;;;;62.83;33.47;;;;;;;2.33;64.60;95864.41;4212680;28;20048;-59
2023/02/16 00:28:45;;;;;;;59.85;33.28;;;;;;;2.31;64.74;95858.47;4209200;28;20084;-61
2023/02/16 00:30:48;;;;;;;56.03;33.53;;;;;;;2.19;64.58;95859.94;4195109;28;20513;-62
2023/02/16 00:32:50;;;;;;;;;;;;;;;2.19;65.26;95863.34;4202536;28;20053;-61
2023/02/16 00:34:52;;;;;;;59.63;33.90;;;;;;;2.30;65.31;95862.78;4219098;28;19955;-62
2023/02/16 00:36:54;;;;;;;59.10;33.05;;;;;;;2.31;64.51;95864.47;4225727;28;20048;-60
2023/02/16 00:38:56;;;;;;;53.78;32.33;;;;;;;2.37;64.94;95863.34;4204313;28;20045;-59
2023/02/16 00:40:57;;;;;;;61.03;34.25;;;;;;;2.41;64.40;95860.50;4207700;28;20468;-60
2023/02/16 00:42:59;;;;;;;57.10;33.13;;;;;;;2.45;64.63;95854.25;4209296;28;20489;-60
2023/02/16 00:45:01;;;;;;;56.35;32.45;;;;;;;2.42;63.72;95854.41;4208357;28;20044;-60
2023/02/16 00:47:12;;;;;;;63.30;34.80;;;;;;;2.31;64.00;95859.31;4189698;28;20581;-60
2023/02/16 00:49:16;;;;;;;67.22;36.58;;;;;;;2.15;64.42;95863.59;4201312;28;20048;-59
2023/02/16 00:51:18;;;;;;;65.15;36.38;;;;;;;2.08;65.46;95860.50;4209426;28;20429;-58
2023/02/16 00:53:26;;;;;;;64.25;37.05;;;;;;;1.94;65.86;95861.22;4205714;28;20424;-61
2023/02/16 00:55:30;;;;;;;65.38;38.15;;;;;;;1.94;66.38;95866.38;4207916;28;20149;-64
2023/02/16 00:57:46;;;;;;;66.82;36.75;;;;;;;1.92;65.95;95863.03;4180838;28;20049;-60
2023/02/16 00:59:53;;;;;;;70.63;40.42;;;;;;;1.91;65.88;95855.34;4204124;28;20650;-61
2023/02/16 01:01:56;;;;;;;67.70;38.05;;;;;;;2.02;66.00;95858.22;4185546;28;20636;-61
2023/02/16 01:04:00;;;;;;;74.22;40.50;;;;;;;1.95;65.96;95852.53;4202167;28;20111;-60
2023/02/16 01:13:03;;;;;;;72.82;40.00;;;;;;;1.49;66.89;95851.44;4182899;28;20648;-58
2023/02/16 01:15:13;;;;;;;69.15;38.70;;;;;;;1.59;66.64;95856.06;4180097;28;20060;-59
2023/02/16 01:17:14;;;;;;;69.20;37.72;;;;;;;1.74;66.40;95848.44;4196152;28;20079;-60
2023/02/16 01:19:16;;;;;;;69.07;38.80;;;;;;;1.66;65.24;95851.44;4197723;28;20052;-60
2023/02/16 01:21:18;;;;;;;72.50;39.38;;;;;;;1.52;65.93;95852.09;4197691;28;20103;-61
2023/02/16 01:23:20;;;;;;;71.80;38.22;;;;;;;1.56;66.91;95845.06;4197599;28;20083;-58
2023/02/16 01:25:25;;;;;;;67.43;38.92;;;;;;;1.69;66.69;95842.69;4197670;28;20144;-60
2023/02/16 01:27:27;;;;;;;64.40;37.97;;;;;;;1.87;65.74;95841.75;4164043;28;20084;-59
2023/02/16 01:29:28;;;;;;;72.47;39.17;;;;;;;2.01;65.38;95831.53;4179961;28;20056;-61
2023/02/16 01:31:30;;;;;;;72.13;38.97;;;;;;;2.18;65.33;95825.50;4200245;28;20656;-60
2023/02/16 01:33:32;;;;;;;69.28;38.47;;;;;;;2.23;64.16;95825.25;4198342;28;20390;-59
2023/02/16 01:35:33;;;;;;;69.20;37.95;;;;;;;2.17;64.07;95825.56;4198658;28;20066;-61
2023/02/16 01:37:35;;;;;;;67.55;38.40;;;;;;;2.04;63.88;95830.53;4198759;28;20413;-60
2023/02/16 01:39:37;;;;;;;67.35;38.05;;;;;;;1.98;64.28;95826.56;4198506;28;20051;-60
2023/02/16 01:42:09;;;;;;;67.53;38.10;;;;;;;1.98;64.47;95825.69;4195926;28;20106;-60
2023/02/16 01:44:14;;;;;;;70.03;38.55;;;;;;;1.65;64.70;95826.50;4179836;28;20045;-60
2023/02/16 01:46:20;;;;;;;66.22;37.45;;;;;;;1.33;65.60;95823.75;4170977;28;20130;-60
2023/02/16 01:48:26;;;;;;;72.90;36.80;;;;;;;1.23;66.10;95832.91;4191941;28;20123;-59
2023/02/16 01:50:41;;;;;;;70.72;35.00;;;;;;;1.13;66.33;95824.75;4215683;28;20048;-60
2023/02/16 01:52:50;;;;;;;67.72;35.03;;;;;;;1.08;66.60;95821.56;4178465;28;20057;-60
2023/02/16 01:55:13;;;;;;;62.42;35.30;;;;;;;1.10;67.00;95824.03;4179034;28;20076;-61
2023/02/16 01:57:18;;;;;;;63.22;33.90;;;;;;;1.08;66.54;95818.16;4153868;28;20049;-61
2023/02/16 01:59:29;;;;;;;58.45;33.40;;;;;;;1.00;66.65;95816.75;4168735;28;20045;-59
2023/02/16 02:01:37;;;;;;;60.72;33.50;;;;;;;1.02;67.45;95816.69;4160864;28;20080;-59
2023/02/16 02:05:59;;;;;;;58.40;32.20;;;;;;;1.12;66.55;95819.66;4164917;28;20057;-60
2023/02/16 02:08:26;;;;;;;58.38;31.85;;;;;;;1.07;66.32;95812.13;4152720;28;20054;-59
2023/02/16 02:10:53;;;;;;;58.88;32.05;;;;;;;0.99;67.08;95815.09;4150329;28;20048;-59
2023/02/16 02:13:06;;;;;;;63.00;32.08;;;;;;;1.08;67.06;95816.41;4145192;28;20081;-59
2023/02/16 02:15:09;;;;;;;57.55;32.88;;;;;;;0.91;66.26;95818.97;4163556;28;20092;-59
2023/02/16 02:17:15;;;;;;;55.08;31.13;;;;;;;0.76;67.18;95813.59;4162685;28;20049;-59
2023/02/16 02:19:16;;;;;;;58.33;31.35;;;;;;;0.71;67.24;95817.28;4164426;28;20053;-59
2023/02/16 02:24:41;;;;;;;53.40;28.67;;;;;;;0.78;67.61;95811.78;4164795;28;20103;-60
2023/02/16 02:26:46;;;;;;;57.30;30.05;;;;;;;0.82;67.28;95812.50;4153181;28;20164;-60
2023/02/16 02:29:06;;;;;;;50.92;28.50;;;;;;;0.71;67.56;95815.56;4164361;28;20107;-61
2023/02/16 02:31:26;;;;;;;48.47;28.85;;;;;;;0.68;67.56;95814.88;4151647;28;20083;-61
2023/02/16 02:33:47;;;;;;;52.53;30.30;;;;;;;0.71;68.01;95805.25;4164541;28;20588;-59
2023/02/16 02:36:09;;;;;;;54.20;30.95;;;;;;;0.79;67.61;95808.28;4150332;28;20049;-61
2023/02/16 02:38:23;;;;;;;56.00;30.83;;;;;;;0.94;67.66;95806.72;4196553;28;20763;-61
2023/02/16 02:40:55;;;;;;;62.55;32.83;;;;;;;1.05;67.75;95803.63;4163729;28;20049;-62
2023/02/16 02:43:21;;;;;;;63.35;33.97;;;;;;;1.27;66.82;95808.59;4164408;28;20530;-60
2023/02/16 02:45:27;;;;;;;60.13;32.58;;;;;;;1.31;65.72;95804.97;4151315;28;20049;-62
2023/02/16 02:47:37;;;;;;;57.35;31.63;;;;;;;1.31;65.87;95802.38;4161120;28;20049;-62
2023/02/16 02:49:52;;;;;;;61.90;32.22;;;;;;;1.34;65.58;95803.97;4164077;28;20057;-61
2023/02/16 02:51:54;;;;;;;58.40;31.63;;;;;;;1.34;65.34;95803.97;4150978;28;20092;-61
2023/02/16 03:01:20;;;;;;;57.13;31.20;;;;;;;1.00;66.65;95821.91;4180171;28;20498;-61
2023/02/16 03:03:32;;;;;;;55.20;31.20;;;;;;;0.84;66.32;95821.00;4195902;28;20044;-61
2023/02/16 03:05:35;;;;;;;57.58;32.60;;;;;;;0.64;67.34;95821.91;4188253;28;20496;-60
2023/02/16 03:07:46;;;;;;;59.75;32.60;;;;;;;0.52;68.35;95825.06;4194471;28;20579;-60
2023/02/16 03:12:43;;;;;;;62.33;34.08;;;;;;;0.49;68.66;95825.19;4212451;28;20052;-58
2023/02/16 03:14:33;;;;;;;62.13;33.25;;;;;;;0.58;68.89;95817.88;4195415;28;20059;-60
2023/02/16 03:16:41;;;;;;;57.60;32.08;;;;;;;0.85;68.41;95819.25;4194971;28;20445;-61
2023/02/16 03:30:40;;;;;;;55.92;31.80;;;;;;;1.56;64.79;95808.91;4180220;28;20057;-63
2023/02/16 03:32:43;;;;;;;58.83;33.08;;;;;;;1.54;64.41;95808.13;4176700;28;20598;-61
2023/02/16 03:34:45;;;;;;;61.88;32.67;;;;;;;1.33;64.60;95805.69;4187865;28;20049;-61
2023/02/16 03:36:57;;;;;;;56.83;30.38;;;;;;;1.16;65.38;95806.56;4182758;28;20105;-62
2023/02/16 03:38:59;;;;;;;63.40;32.20;;;;;;;1.11;65.67;95808.50;4196209;28;20082;-61
2023/02/16 03:41:01;;;;;;;53.55;30.40;;;;;;;1.08;66.13;95803.50;4186068;28;20048;-61
2023/02/16 03:43:05;;;;;;;55.22;31.02;;;;;;;1.18;66.14;95802.16;4173760;28;20513;-60
2023/02/16 03:45:07;;;;;;;;;;;;;;;1.32;65.72;95805.78;4197692;28;20052;-62
2023/02/16 03:47:09;;;;;;;58.83;31.58;;;;;;;1.21;64.78;95807.16;4194737;28;20383;-60
2023/02/16 03:49:11;;;;;;;51.00;29.70;;;;;;;1.08;65.66;95810.41;4196176;28;20052;-62
2023/02/16 03:51:13;;;;;;;48.78;28.05;;;;;;;1.06;65.62;95810.47;4195664;28;20155;-55
2023/02/16 03:53:15;;;;;;;49.67;28.33;;;;;;;0.93;65.44;95815.38;4195446;28;20102;-51
2023/02/16 03:55:18;;;;;;;48.47;28.95;;;;;;;0.79;66.36;95813.44;4194003;28;20090;-57
2023/02/16 03:57:20;;;;;;;47.60;28.45;;;;;;;0.63;67.04;95802.19;4201891;28;20044;-58
2023/02/16 03:59:21;;;;;;;49.42;25.55;;;;;;;0.58;66.81;95805.00;4202837;28;20444;-56
2023/02/16 04:01:23;;;;;;;45.95;26.58;;;;;;;0.56;67.68;95805.94;4203489;28;20076;-57
2023/02/16 04:03:26;;;;;;;50.50;27.65;;;;;;;0.56;67.56;95811.09;4205547;28;20062;-53
2023/02/16 04:05:27;;;;;;;42.47;26.38;;;;;;;0.44;67.35;95811.69;4205767;28;20607;-57
2023/02/16 04:07:29;;;;;;;43.80;24.27;;;;;;;0.42;67.76;95803.19;4188793;28;20053;-55
2023/02/16 04:09:32;;;;;;;40.33;23.75;;;;;;;0.44;67.77;95798.81;4211157;28;20131;-57
2023/02/16 04:13:53;;;;;;;39.05;23.88;;;;;;;0.37;67.15;95796.50;4196425;28;20390;-56
2023/02/16 04:15:55;;;;;;;42.20;23.05;;;;;;;0.45;67.57;95803.03;4176764;28;20049;-53
2023/02/16 04:18:00;;;;;;;45.63;25.50;;;;;;;0.35;67.34;95795.72;4165490;28;20048;-54
2023/02/16 04:20:12;;;;;;;42.08;25.13;;;;;;;0.40;67.70;95791.19;4195219;28;20123;-53
2023/02/16 04:22:14;;;;;;;38.30;23.10;;;;;;;0.40;67.11;95792.94;4178063;28;20407;-56
2023/02/16 04:24:15;;;;;;;41.58;24.50;;;;;;;0.40;66.98;95795.53;4196825;28;20447;-55
2023/02/16 04:26:17;;;;;;;44.88;24.50;;;;;;;0.28;67.97;95791.78;4195663;28;20075;-57
2023/02/16 04:28:19;;;;;;;43.85;26.58;;;;;;;0.39;68.21;95791.28;4195886;28;20048;-57
2023/02/16 04:30:24;;;;;;;45.50;26.40;;;;;;;0.47;67.70;95790.91;4195362;28;20052;-55
2023/02/16 04:32:25;;;;;;;50.78;28.40;;;;;;;0.58;67.85;95788.66;4195176;28;20135;-56
2023/02/16 04:34:27;;;;;;;44.17;26.15;;;;;;;0.72;67.07;95791.44;4185550;28;20045;-55
2023/02/16 04:36:30;;;;;;;50.72;28.20;;;;;;;0.81;66.59;95791.00;4191867;28;20131;-56
2023/02/16 04:38:32;;;;;;;49.13;27.97;;;;;;;0.96;65.98;95793.75;4187492;28;20045;-56
2023/02/16 04:40:33;;;;;;;53.42;30.02;;;;;;;1.10;66.35;95787.91;4197016;28;20080;-59
2023/02/16 04:42:35;;;;;;;51.85;29.27;;;;;;;1.21;65.52;95796.81;4195272;28;20063;-53
2023/02/16 04:44:37;;;;;;;55.63;30.38;;;;;;;1.31;64.59;95794.63;4186473;28;20052;-57
2023/02/16 04:46:38;;;;;;;47.50;27.55;;;;;;;1.16;64.74;95803.09;4196927;28;20045;-58
2023/02/16 04:48:40;;;;;;;52.45;29.70;;;;;;;1.10;65.14;95795.66;4202431;28;20501;-55
2023/02/16 04:50:42;;;;;;;59.05;33.95;;;;;;;0.91;65.50;95799.16;4200439;28;20478;-54
2023/02/16 04:52:43;;;;;;;57.28;32.30;;;;;;;0.87;66.62;95807.09;4191942;28;20053;-55
2023/02/16 04:54:45;;;;;;;62.15;36.40;;;;;;;0.84;65.70;95808.09;4203680;28;20052;-58
2023/02/16 04:56:47;;;;;;;66.10;37.05;;;;;;;0.65;65.99;95808.13;4201911;28;20461;-56
2023/02/16 04:59:01;;;;;;;70.93;38.50;;;;;;;0.48;66.59;95802.91;4214482;28;20083;-58
2023/02/16 05:01:02;;;;;;;64.28;38.55;;;;;;;0.35;67.66;95813.78;4211276;28;20059;-54
2023/02/16 05:03:04;;;;;;;75.68;41.72;;;;;;;0.27;67.34;95805.56;4213311;28;20129;-56
2023/02/16 05:05:07;;;;;;;79.05;42.60;;;;;;;0.20;67.54;95810.16;4209333;28;20070;-57
2023/02/16 05:07:08;;;;;;;70.50;41.75;;;;;;;0.24;68.00;95804.84;4204196;28;20044;-58
2023/02/16 05:09:10;;;;;;;71.22;40.50;;;;;;;0.22;67.21;95814.41;4214238;28;20047;-60
2023/02/16 05:15:52;;;;;;;72.60;40.10;;;;;;;0.03;68.93;95827.28;4199838;28;20060;-56
2023/02/16 05:17:54;;;;;;;71.68;40.85;;;;;;;-0.16;68.97;95822.91;4214193;28;20543;-54
2023/02/16 05:19:58;;;;;;;77.82;41.17;;;;;;;-0.23;69.87;95824.91;4207035;28;20189;-57
2023/02/16 05:21:59;;;;;;;79.50;41.55;;;;;;;-0.29;69.82;95814.03;4198328;28;20117;-58
2023/02/16 05:24:09;;;;;;;72.93;41.05;;;;;;;-0.29;70.08;95822.59;4186171;28;20048;-56
2023/02/16 05:26:11;;;;;;;76.32;42.22;;;;;;;-0.26;69.98;95821.63;4169475;28;20053;-59
2023/02/16 05:28:12;;;;;;;76.30;40.40;;;;;;;-0.19;70.42;95820.47;4197639;28;20132;-56
2023/02/16 05:30:14;;;;;;;75.25;40.88;;;;;;;-0.14;69.77;95818.53;4187800;28;20482;-60
2023/02/16 05:32:17;;;;;;;75.65;43.50;;;;;;;-0.19;69.88;95815.31;4205404;28;20056;-58
2023/02/16 05:34:18;;;;;;;75.47;43.65;;;;;;;-0.16;69.67;95825.47;4198176;28;20043;-58
2023/02/16 05:36:21;;;;;;;76.07;42.03;;;;;;;-0.10;69.76;95825.22;4197547;28;20049;-55
2023/02/16 05:38:22;;;;;;;78.72;42.70;;;;;;;-0.19;69.81;95833.34;4197588;28;20052;-56
2023/02/16 05:40:24;;;;;;;74.38;42.38;;;;;;;-0.16;70.59;95833.22;4208355;28;20083;-55
2023/02/16 05:42:28;;;;;;;74.30;42.22;;;;;;;-0.03;70.41;95831.78;4197654;28;20048;-57
2023/02/16 05:44:30;;;;;;;69.53;39.78;;;;;;;0.11;70.18;95831.19;4179871;28;20053;-55
2023/02/16 05:46:34;;;;;;;75.40;42.10;;;;;;;0.25;69.42;95830.56;4206605;28;20040;-55
2023/02/16 05:48:35;;;;;;;;;;;;;;;0.43;68.12;95830.63;4212510;28;20047;-59
2023/02/16 05:50:37;;;;;;;67.95;40.05;;;;;;;0.70;67.63;95837.09;4195522;28;20304;-58
2023/02/16 05:52:38;;;;;;;67.60;38.33;;;;;;;0.87;66.66;95830.31;4183315;28;20055;-55
2023/02/16 05:54:40;;;;;;;69.07;38.25;;;;;;;0.87;66.38;95838.91;4196559;28;20140;-57
2023/02/16 05:56:47;;;;;;;63.17;36.75;;;;;;;0.89;67.22;95831.09;4174611;28;20053;-58
2023/02/16 05:58:49;;;;;;;67.25;38.15;;;;;;;1.04;66.26;95838.09;4183975;28;20060;-60
2023/02/16 06:00:52;;;;;;;65.18;37.05;;;;;;;1.05;66.10;95839.75;4194858;28;20490;-56
2023/02/16 06:02:53;;;;;;;91.32;46.38;;;;;;;0.85;66.42;95837.31;4191203;28;20040;-58
2023/02/16 06:04:55;;;;;;;72.05;40.85;;;;;;;0.67;67.20;95836.41;4199509;28;20127;-53
2023/02/16 06:07:00;;;;;;;67.72;39.08;;;;;;;0.23;68.07;95845.25;4194497;28;20390;-56
2023/02/16 06:09:06;;;;;;;63.08;37.60;;;;;;;0.12;68.90;95852.63;4180036;28;20112;-54
2023/02/16 06:11:34;;;;;;;73.60;40.97;;;;;;;-0.02;69.75;95856.66;4194419;28;20498;-57
2023/02/16 06:13:29;;;;;;;72.00;40.95;;;;;;;-0.11;69.89;95857.03;4197111;28;20044;-57
2023/02/16 06:15:31;;;;;;;75.28;40.92;;;;;;;-0.14;70.51;95862.31;4203783;28;20053;-58
2023/02/16 06:17:32;;;;;;;75.70;41.92;;;;;;;0.16;70.17;95856.75;4185921;28;20136;-52
2023/02/16 06:19:34;;;;;;;109.72;58.22;;;;;;;0.29;69.59;95862.19;4208258;28;20631;-57
2023/02/16 06:21:36;;;;;;;105.25;58.95;;;;;;;0.50;69.19;95857.81;4199955;28;20048;-55
2023/02/16 06:23:38;;;;;;;122.63;67.50;;;;;;;0.72;68.08;95866.22;4178912;28;20123;-56
2023/02/16 06:25:51;;;;;;;122.28;62.00;;;;;;;1.00;67.33;95865.78;4200226;28;20056;-57
2023/02/16 06:27:55;;;;;;;162.25;78.93;;;;;;;1.21;66.52;95868.28;4200623;28;20052;-58
2023/02/16 06:29:57;;;;;;;97.40;54.30;;;;;;;1.30;65.56;95865.22;4201164;28;20485;-56
2023/02/16 06:31:59;;;;;;;89.43;50.28;;;;;;;1.37;65.54;95868.34;4193774;28;20049;-57
2023/02/16 06:34:04;;;;;;;77.72;45.90;;;;;;;1.46;65.48;95879.97;4200777;28;20044;-57
2023/02/16 06:36:06;;;;;;;76.43;43.17;;;;;;;1.58;65.03;95866.47;4200321;28;20048;-55
2023/02/16 06:38:08;;;;;;;80.40;44.25;;;;;;;1.71;64.43;95874.47;4203278;28;20037;-58
2023/02/16 06:40:13;;;;;;;88.15;47.42;;;;;;;1.81;64.33;95873.91;4209439;28;20491;-56
2023/02/16 06:42:14;;;;;;;89.10;47.28;;;;;;;1.89;64.05;95868.34;4200994;28;20098;-56
2023/02/16 06:44:16;;;;;;;82.53;46.53;;;;;;;1.98;64.20;95870.50;4196464;28;20075;-55
2023/02/16 06:46:18;;;;;;;81.95;45.42;;;;;;;2.15;63.87;95866.19;4186921;28;20116;-58
2023/02/16 06:48:19;;;;;;;82.20;47.92;;;;;;;2.05;62.91;95879.59;4193792;28;20533;-56
2023/02/16 06:50:21;;;;;;;79.90;44.42;;;;;;;2.02;63.59;95877.16;4198221;28;20146;-59
2023/02/16 06:52:35;;;;;;;83.53;45.78;;;;;;;1.97;63.75;95875.72;4202451;28;20049;-58
2023/02/16 06:54:38;;;;;;;79.40;45.33;;;;;;;1.72;64.27;95876.97;4200540;28;20055;-59
2023/02/16 06:56:39;;;;;;;84.15;47.45;;;;;;;1.82;64.72;95873.00;4199282;28;20131;-55
2023/02/16 06:58:41;;;;;;;77.50;44.95;;;;;;;1.98;64.85;95873.06;4213045;28;20112;-57
2023/02/16 07:00:43;;;;;;;78.68;44.50;;;;;;;2.21;64.78;95869.28;4201768;28;20084;-55
2023/02/16 07:02:45;;;;;;;74.43;44.83;;;;;;;2.39;63.58;95872.69;4196385;28;20421;-61
2023/02/16 07:04:47;;;;;;;79.75;45.40;;;;;;;2.56;63.94;95868.34;4200141;28;20105;-55
2023/02/16 07:06:52;;;;;;;72.00;42.75;;;;;;;2.64;62.82;95872.19;4212703;28;20101;-55
2023/02/16 07:08:53;;;;;;;74.20;43.88;;;;;;;2.61;62.27;95863.78;4204725;28;20052;-60
2023/02/16 07:10:55;;;;;;;79.18;45.28;;;;;;;2.65;62.13;95853.19;4198349;28;20041;-55
2023/02/16 07:12:57;;;;;;;77.78;42.65;;;;;;;2.60;62.50;95869.84;4197973;28;20516;-53
2023/02/16 07:14:59;;;;;;;77.85;44.13;;;;;;;2.65;62.76;95862.72;4196217;28;20083;-58
2023/02/16 07:17:03;;;;;;;93.43;51.75;;;;;;;2.42;63.18;95859.56;4191363;28;20049;-62
2023/02/16 07:19:05;;;;;;;80.43;46.90;;;;;;;2.44;63.58;95852.56;4194637;28;20044;-54
2023/02/16 07:21:07;;;;;;;82.93;45.70;;;;;;;2.61;64.27;95851.69;4199257;28;20469;-55
2023/02/16 07:23:09;;;;;;;79.07;44.38;;;;;;;2.74;64.33;95848.44;4200731;28;20052;-53
2023/02/16 07:25:10;;;;;;;85.22;47.90;;;;;;;2.78;62.76;95840.41;4200007;28;20059;-62
2023/02/16 07:27:12;;;;;;;87.70;46.53;;;;;;;2.77;62.59;95840.50;4204061;28;20053;-56
2023/02/16 07:29:23;;;;;;;79.70;47.45;;;;;;;2.62;63.14;95840.44;4190278;28;20051;-59
2023/02/16 07:31:25;;;;;;;81.45;47.80;;;;;;;2.51;63.97;95840.16;4197229;28;20494;-56
2023/02/16 07:33:26;;;;;;;79.50;46.00;;;;;;;2.27;64.00;95836.28;4200600;28;20559;-57
2023/02/16 07:35:28;;;;;;;70.72;43.03;;;;;;;2.36;65.24;95844.38;4201030;28;20070;-59
2023/02/16 07:37:30;;;;;;;76.55;42.58;;;;;;;2.43;65.71;95845.75;4203956;28;20476;-59
2023/02/16 07:39:31;;;;;;;76.97;45.03;;;;;;;2.75;65.53;95834.56;4197827;28;20061;-59
2023/02/16 07:41:33;;;;;;;64.97;39.55;;;;;;;3.03;64.07;95836.47;4190863;28;20087;-59
2023/02/16 07:43:35;;;;;;;70.78;41.28;;;;;;;3.11;62.57;95839.47;4202387;28;20045;-60
2023/02/16 07:45:41;;;;;;;67.43;39.70;;;;;;;2.97;62.38;95836.81;4198617;28;20382;-59
2023/02/16 07:47:42;;;;;;;69.93;39.40;;;;;;;2.97;62.78;95836.81;4183798;28;20139;-57
2023/02/16 07:49:44;;;;;;;61.63;36.95;;;;;;;2.81;63.05;95840.25;4197171;28;20056;-59
2023/02/16 07:51:46;;;;;;;64.40;36.15;;;;;;;2.92;63.26;95838.81;4203856;28;20052;-60
2023/02/16 07:53:47;;;;;;;61.40;38.03;;;;;;;3.14;63.26;95836.72;4202635;28;20052;-58
2023/02/16 07:55:49;;;;;;;102.38;54.75;;;;;;;3.38;64.76;95846.63;4194432;28;20079;-57
2023/02/16 07:58:06;;;;;;;69.70;40.22;;;;;;;3.45;61.82;95847.94;4203378;28;20079;-59
2023/02/16 08:00:11;;;;;;;68.07;39.75;;;;;;;3.33;61.43;95844.28;4188510;28;20198;-59
2023/02/16 08:02:16;;;;;;;58.90;34.35;;;;;;;3.32;62.25;95842.63;4191595;28;20127;-56
2023/02/16 08:04:18;;;;;;;66.47;38.08;;;;;;;3.48;61.96;95851.19;4196664;28;20072;-59
2023/02/16 08:06:20;;;;;;;61.70;38.20;;;;;;;3.64;61.40;95842.53;4207489;28;20052;-58
2023/02/16 08:08:21;;;;;;;69.72;39.28;;;;;;;3.82;61.43;95845.81;4196916;28;20389;-59
2023/02/16 08:10:24;;;;;;;72.07;42.13;;;;;;;3.93;59.96;95848.59;4199300;28;20049;-62
2023/02/16 08:12:25;;;;;;;71.55;42.63;;;;;;;3.77;60.52;95843.50;4198008;28;20052;-60
2023/02/16 08:14:27;;;;;;;80.93;44.78;;;;;;;3.51;60.64;95844.16;4200730;28;20048;-61
2023/02/16 08:16:29;;;;;;;79.00;44.55;;;;;;;3.17;61.24;95854.66;4167825;28;20426;-60
2023/02/16 08:18:30;;;;;;;76.85;45.38;;;;;;;3.29;62.20;95853.13;4199980;28;20045;-59
2023/02/16 08:20:32;;;;;;;77.72;43.65;;;;;;;3.45;61.79;95858.31;4200233;28;20551;-59
2023/02/16 08:22:53;;;;;;;75.00;42.15;;;;;;;3.49;61.35;95855.44;4187498;28;20044;-59
2023/02/16 08:24:55;;;;;;;79.53;43.30;;;;;;;3.59;61.12;95855.78;4199954;28;20079;-56
2023/02/16 08:26:57;;;;;;;80.90;45.88;;;;;;;3.81;60.56;95865.72;4188506;28;20135;-62
2023/02/16 08:28:58;;;;;;;72.70;43.78;;;;;;;3.73;59.87;95861.91;4198664;28;20044;-60
2023/02/16 08:31:05;;;;;;;86.57;46.63;;;;;;;3.62;60.40;95855.56;4198280;28;20053;-59
2023/02/16 08:33:06;;;;;;;75.82;44.25;;;;;;;3.76;60.84;95857.34;4201025;28;20140;-60
2023/02/16 08:35:09;;;;;;;75.32;43.67;;;;;;;3.75;59.74;95850.53;4200509;28;20130;-58
2023/02/16 08:37:13;;;;;;;83.35;45.00;;;;;;;4.02;59.84;95861.03;4207007;28;20115;-61
2023/02/16 08:39:16;;;;;;;89.05;45.40;;;;;;;4.31;60.19;95855.88;4200185;28;20058;-61
2023/02/16 08:41:20;;;;;;;83.25;47.75;;;;;;;4.49;58.76;95854.75;4189495;28;20057;-59
2023/02/16 08:43:25;;;;;;;86.35;46.72;;;;;;;4.55;58.02;95850.94;4201131;28;20519;-61
2023/02/16 08:45:26;;;;;;;79.60;47.22;;;;;;;4.45;58.09;95855.03;4196143;28;20114;-59
2023/02/16 08:47:28;;;;;;;92.38;47.47;;;;;;;4.21;59.10;95852.97;4186926;28;20095;-57
2023/02/16 08:49:30;;;;;;;80.75;47.50;;;;;;;4.38;58.69;95853.75;4181217;28;20128;-57
2023/02/16 08:51:35;;;;;;;84.95;47.20;;;;;;;4.66;57.48;95855.47;4199184;28;20466;-55
2023/02/16 08:53:37;;;;;;;86.60;48.53;;;;;;;4.85;57.15;95845.63;4199267;28;20041;-56
2023/02/16 08:55:39;;;;;;;83.90;48.90;;;;;;;5.04;56.33;95849.66;4205854;28;20135;-60
2023/02/16 08:57:40;;;;;;;83.30;47.38;;;;;;;5.15;57.13;95847.22;4209766;28;20056;-61
2023/02/16 08:59:42;;;;;;;107.35;54.45;;;;;;;5.20;56.62;95847.75;4215000;28;20351;-57
2023/02/16 09:01:44;;;;;;;93.28;50.28;;;;;;;5.37;56.56;95838.88;4213091;28;20052;-58
2023/02/16 09:03:46;;;;;;;87.60;50.25;;;;;;;5.59;56.16;95843.50;4214802;28;20052;-58
2023/02/16 09:05:49;;;;;;;89.38;51.35;;;;;;;5.79;55.84;95838.78;4204969;28;20055;-59
2023/02/16 09:07:52;;;;;;;89.13;51.05;;;;;;;6.02;54.65;95839.84;4210750;28;20575;-59
2023/02/16 09:09:54;;;;;;;85.43;50.45;;;;;;;6.06;54.56;95846.53;4207965;28;20100;-60
2023/02/16 09:11:56;;;;;;;102.97;58.75;;;;;;;5.54;54.56;95845.56;4210349;28;20052;-61
2023/02/16 09:13:58;;;;;;;105.30;58.67;;;;;;;5.31;55.75;95849.66;4210304;28;20060;-56
2023/02/16 09:16:02;;;;;;;108.38;60.10;;;;;;;5.16;56.25;95843.66;4203106;28;20495;-60
2023/02/16 09:18:06;;;;;;;108.80;61.70;;;;;;;5.10;56.33;95841.50;4198536;28;20043;-61
2023/02/16 09:20:08;;;;;;;107.85;58.92;;;;;;;5.09;56.58;95835.44;4206000;28;20101;-59
2023/02/16 09:22:10;;;;;;;110.85;61.45;;;;;;;5.18;56.46;95841.81;4188904;28;20060;-58
2023/02/16 09:24:12;;;;;;;108.30;58.67;;;;;;;5.31;55.62;95834.06;4205603;28;20048;-58
2023/02/16 09:26:15;;;;;;;104.40;59.60;;;;;;;5.45;55.88;95831.41;4209547;28;20079;-60
2023/02/16 09:28:17;;;;;;;96.80;55.25;;;;;;;5.76;55.55;95832.00;4210497;28;20496;-61
2023/02/16 09:30:19;;;;;;;97.90;56.15;;;;;;;5.98;54.78;95833.19;4198491;28;20059;-57
2023/02/16 09:32:21;;;;;;;104.85;57.20;;;;;;;6.18;53.94;95818.84;4203793;28;20048;-60
2023/02/16 09:34:23;;;;;;;101.15;56.75;;;;;;;6.43;53.50;95821.44;4199088;28;20554;-56
2023/02/16 09:36:28;;;;;;;95.43;54.45;;;;;;;6.66;52.33;95824.19;4209533;28;20110;-60
2023/02/16 09:38:30;;;;;;;95.50;49.70;;;;;;;6.65;52.66;95817.34;4197461;28;20044;-59
2023/02/16 09:40:31;;;;;;;85.72;50.08;;;;;;;6.26;53.16;95811.34;4209505;28;20135;-64
2023/02/16 09:42:50;;;;;;;79.82;48.95;;;;;;;5.90;53.74;95821.50;4210926;28;20055;-55
2023/02/16 09:45:13;;;;;;;89.57;48.90;;;;;;;5.62;55.16;95819.91;4208117;28;20055;-60
2023/02/16 09:47:23;;;;;;;78.18;47.25;;;;;;;5.65;54.78;95821.47;4173884;28;20063;-56
2023/02/16 09:49:35;;;;;;;82.47;44.90;;;;;;;5.67;55.26;95812.63;4211787;28;20440;-56
2023/02/16 09:51:43;;;;;;;77.43;43.92;;;;;;;5.62;55.39;95816.50;4188410;28;20151;-56
2023/02/16 09:53:46;;;;;;;76.07;44.90;;;;;;;5.77;55.09;95812.03;4183390;28;20101;-58
2023/02/16 09:56:15;;;;;;;84.18;46.10;;;;;;;5.88;54.50;95807.78;4176528;28;20504;-59
2023/02/16 09:58:21;;;;;;;80.93;44.22;;;;;;;5.83;54.06;95802.06;4181787;28;20055;-58
2023/02/16 10:00:32;;;;;;;81.55;45.53;;;;;;;6.02;54.01;95801.66;4179540;28;20055;-57
2023/02/16 10:02:40;;;;;;;78.13;44.75;;;;;;;6.11;53.76;95790.66;4178864;28;20075;-57
2023/02/16 10:04:53;;;;;;;80.55;44.15;;;;;;;5.94;53.62;95793.53;4180035;28;20049;-57
2023/02/16 10:07:00;;;;;;;76.88;44.00;;;;;;;5.88;54.62;95796.53;4169502;28;20053;-59
2023/02/16 10:09:07;;;;;;;73.10;43.67;;;;;;;5.97;53.98;95792.53;4182119;28;20059;-57
2023/02/16 10:11:47;;;;;;;76.32;44.08;;;;;;;6.10;53.52;95783.75;4181173;28;20052;-60
2023/02/16 10:13:53;;;;;;;78.65;45.78;;;;;;;6.01;54.31;95781.81;4174332;28;20098;-55
2023/02/16 10:15:56;;;;;;;73.68;43.40;;;;;;;6.40;53.36;95777.38;4178465;28;20078;-60
2023/02/16 10:18:06;;;;;;;76.40;45.30;;;;;;;6.62;52.85;95778.47;4168079;28;20076;-58
2023/02/16 10:20:33;;;;;;;75.00;44.58;;;;;;;6.79;52.21;95772.91;4179364;28;20064;-60
2023/02/16 10:22:43;;;;;;;76.22;43.03;;;;;;;6.82;51.80;95764.03;4184568;28;20087;-58
2023/02/16 10:24:58;;;;;;;77.65;44.17;;;;;;;6.79;52.03;95767.69;4179056;28;20383;-60